Time;durP1;ratioP1;P1;durP2;ratioP2;P2;SDS_P1;SDS_P2;PMS_P1;PMS_P2;Temp;Humidity;BMP_temperature;BMP_pressure;BME280_temperature;BME280_humidity;BME280_pressure;Samples;Min_cycle;Max_cycle;Signal;HPM_P1;HPM_P2
2023/09/09 00:01:34;;;;;;;0.40;0.20;;;;;;;16.55;100.00;100285.53;5047661;28;20443;-79
2023/09/09 00:04:03;;;;;;;0.40;0.20;;;;;;;16.59;100.00;100284.44;5046477;28;20450;-79
2023/09/09 00:06:30;;;;;;;0.40;0.20;;;;;;;16.70;99.77;100286.56;5039986;28;20512;-78
2023/09/09 00:08:56;;;;;;;0.43;0.20;;;;;;;16.65;99.25;100289.47;5041464;28;20459;-79
2023/09/09 00:11:23;;;;;;;0.40;0.20;;;;;;;16.55;99.70;100282.84;5048301;28;20479;-81
2023/09/09 00:13:51;;;;;;;0.40;0.20;;;;;;;16.69;99.71;100277.63;5034928;28;20538;-79
2023/09/09 00:16:18;;;;;;;0.40;0.20;;;;;;;16.68;99.55;100273.22;5036635;28;20877;-79
2023/09/09 00:18:44;;;;;;;0.50;0.20;;;;;;;16.68;99.10;100283.94;5047905;28;20493;-79
2023/09/09 00:21:11;;;;;;;0.40;0.20;;;;;;;16.53;98.71;100284.75;5034889;28;20984;-79
2023/09/09 00:23:37;;;;;;;0.40;0.20;;;;;;;16.59;98.80;100287.97;5047647;28;20534;-79
2023/09/09 00:26:04;;;;;;;0.40;0.20;;;;;;;16.57;98.57;100286.31;5030915;28;20524;-79
2023/09/09 00:28:32;;;;;;;0.50;0.20;;;;;;;16.53;98.68;100287.44;5039380;28;20574;-79
2023/09/09 00:30:59;;;;;;;0.50;0.20;;;;;;;16.57;98.60;100283.63;5047983;28;20460;-78
2023/09/09 00:33:25;;;;;;;0.40;0.20;;;;;;;16.58;98.15;100286.25;5047449;28;20458;-79
2023/09/09 00:35:52;;;;;;;0.40;0.20;;;;;;;16.53;97.46;100280.25;5042609;28;20458;-79
2023/09/09 00:38:18;;;;;;;0.40;0.20;;;;;;;16.35;98.40;100280.34;5039884;28;20476;-79
2023/09/09 00:41:12;;;;;;;0.40;0.20;;;;;;;16.24;98.88;100273.72;5041185;28;20545;-79
2023/09/09 00:43:39;;;;;;;0.43;0.20;;;;;;;16.20;99.63;100277.53;5041381;28;20451;-79
2023/09/09 00:46:07;;;;;;;0.50;0.20;;;;;;;16.18;100.00;100273.19;5042573;28;20491;-79
2023/09/09 00:48:35;;;;;;;0.50;0.50;;;;;;;16.16;100.00;100278.63;5039003;28;20501;-78
2023/09/09 00:51:02;;;;;;;3.73;3.30;;;;;;;16.17;100.00;100279.47;5041289;28;20440;-79
2023/09/09 00:53:31;;;;;;;0.50;0.20;;;;;;;16.08;100.00;100279.97;5046249;28;20966;-79
2023/09/09 00:56:01;;;;;;;0.50;0.20;;;;;;;16.17;100.00;100282.16;5033637;28;20479;-78
2023/09/09 00:58:30;;;;;;;0.50;0.37;;;;;;;16.07;100.00;100275.56;5047811;28;20458;-79
2023/09/09 01:00:57;;;;;;;0.47;0.20;;;;;;;16.02;100.00;100275.78;5046468;28;20483;-79
2023/09/09 01:03:24;;;;;;;0.40;0.20;;;;;;;16.09;100.00;100277.22;5041299;28;20791;-79
2023/09/09 01:05:51;;;;;;;0.40;0.20;;;;;;;16.16;100.00;100283.97;5052836;28;20446;-79
2023/09/09 01:08:26;;;;;;;0.40;0.20;;;;;;;16.11;100.00;100285.19;5034117;28;21139;-79
2023/09/09 01:10:53;;;;;;;0.40;0.20;;;;;;;15.91;100.00;100271.00;5046562;28;20450;-79
2023/09/09 01:13:20;;;;;;;0.40;0.20;;;;;;;16.04;100.00;100276.59;5042512;28;20455;-79
2023/09/09 01:15:48;;;;;;;0.50;0.20;;;;;;;16.12;100.00;100278.88;5040715;28;20448;-79
2023/09/09 01:18:17;;;;;;;0.50;0.20;;;;;;;15.88;100.00;100275.63;5043687;28;20824;-79
2023/09/09 01:20:56;;;;;;;0.40;0.20;;;;;;;15.87;100.00;100271.19;5050572;28;20518;-79
2023/09/09 01:23:24;;;;;;;0.40;0.20;;;;;;;15.95;100.00;100283.28;5043264;28;20451;-79
2023/09/09 01:25:50;;;;;;;0.40;0.20;;;;;;;15.91;100.00;100280.84;5047758;28;20519;-79
2023/09/09 01:28:21;;;;;;;0.40;0.20;;;;;;;15.82;100.00;100263.41;5031307;28;20496;-79
2023/09/09 01:30:51;;;;;;;0.40;0.20;;;;;;;15.83;100.00;100273.16;5045418;28;20964;-79
2023/09/09 01:33:18;;;;;;;0.40;0.20;;;;;;;15.76;100.00;100263.72;5045314;28;20460;-79
2023/09/09 01:35:46;;;;;;;0.40;0.20;;;;;;;15.83;100.00;100277.66;5047415;28;20482;-79
2023/09/09 01:38:13;;;;;;;0.40;0.20;;;;;;;15.71;100.00;100276.47;5046372;28;20471;-79
2023/09/09 01:40:39;;;;;;;0.40;0.20;;;;;;;15.72;100.00;100278.19;5027293;28;20451;-79
2023/09/09 01:43:06;;;;;;;0.40;0.20;;;;;;;15.66;100.00;100281.19;5039773;28;20501;-78
2023/09/09 01:45:32;;;;;;;0.40;0.20;;;;;;;15.70;100.00;100278.28;5046090;28;20459;-78
2023/09/09 01:47:58;;;;;;;0.40;0.20;;;;;;;15.70;100.00;100283.63;5034651;28;20944;-79
2023/09/09 01:50:25;;;;;;;0.40;0.20;;;;;;;15.60;100.00;100285.03;5046113;28;21016;-78
2023/09/09 01:52:52;;;;;;;0.50;0.20;;;;;;;15.59;100.00;100285.06;5047405;28;20549;-78
2023/09/09 01:55:18;;;;;;;0.50;0.20;;;;;;;15.69;100.00;100281.91;5033173;28;20483;-77
2023/09/09 01:57:46;;;;;;;0.40;0.20;;;;;;;15.59;100.00;100279.72;5036209;28;20477;-78
2023/09/09 02:00:13;;;;;;;0.40;0.20;;;;;;;15.55;100.00;100284.38;5045283;28;20459;-78
2023/09/09 02:02:40;;;;;;;0.40;0.20;;;;;;;15.60;100.00;100278.81;5047230;28;20486;-78
2023/09/09 02:05:07;;;;;;;0.40;0.20;;;;;;;15.59;100.00;100282.41;5045078;28;20486;-78
2023/09/09 02:07:33;;;;;;;0.40;0.20;;;;;;;15.62;99.93;100288.53;5026842;28;20983;-79
2023/09/09 02:10:00;;;;;;;0.50;0.20;;;;;;;15.53;100.00;100285.41;5041352;28;20463;-78
2023/09/09 02:12:28;;;;;;;0.40;0.20;;;;;;;15.62;100.00;100284.94;5040034;28;20535;-78
2023/09/09 02:14:54;;;;;;;0.40;0.20;;;;;;;15.43;100.00;100276.06;5038254;28;20535;-77
2023/09/09 02:17:21;;;;;;;0.40;0.20;;;;;;;15.50;100.00;100280.19;5042515;28;20509;-78
2023/09/09 02:19:54;;;;;;;0.40;0.20;;;;;;;15.48;100.00;100282.06;5040741;28;20494;-78
2023/09/09 02:22:20;;;;;;;0.40;0.20;;;;;;;15.33;100.00;100286.34;5050923;28;20494;-77
2023/09/09 02:24:47;;;;;;;0.40;0.20;;;;;;;15.34;100.00;100288.06;5042903;28;20504;-78
2023/09/09 02:27:14;;;;;;;0.40;0.20;;;;;;;15.27;100.00;100283.97;5047226;28;20478;-78
2023/09/09 02:29:40;;;;;;;0.40;0.20;;;;;;;15.27;100.00;100276.81;5032624;28;20587;-78
2023/09/09 02:32:07;;;;;;;0.40;0.20;;;;;;;15.36;100.00;100281.72;5038916;28;21444;-78
2023/09/09 02:34:33;;;;;;;0.40;0.20;;;;;;;15.45;100.00;100283.06;5046315;28;20530;-78
2023/09/09 02:37:19;;;;;;;0.40;0.20;;;;;;;15.46;100.00;100282.13;5048946;28;20933;-78
2023/09/09 02:39:50;;;;;;;0.40;0.20;;;;;;;15.43;100.00;100294.81;5037065;28;20479;-78
2023/09/09 02:42:18;;;;;;;0.40;0.20;;;;;;;15.41;100.00;100287.72;5050544;28;20479;-78
2023/09/09 02:44:45;;;;;;;0.40;0.20;;;;;;;15.40;100.00;100287.81;5035957;28;20510;-78
2023/09/09 02:47:13;;;;;;;0.40;0.20;;;;;;;15.37;100.00;100290.63;5035248;28;20567;-78
2023/09/09 02:49:40;;;;;;;0.40;0.20;;;;;;;15.27;100.00;100289.34;5049547;28;20537;-78
2023/09/09 02:52:07;;;;;;;0.50;0.40;;;;;;;15.23;100.00;100293.97;5048800;28;20973;-78
2023/09/09 02:54:35;;;;;;;0.43;0.27;;;;;;;15.26;100.00;100293.81;5048407;28;20839;-78
2023/09/09 02:57:03;;;;;;;0.40;0.20;;;;;;;15.17;100.00;100291.56;5030935;28;20992;-78
2023/09/09 02:59:33;;;;;;;0.40;0.20;;;;;;;15.22;100.00;100291.38;5044676;28;20443;-79
2023/09/09 03:02:00;;;;;;;0.40;0.20;;;;;;;15.18;100.00;100295.13;5037019;28;20510;-79
2023/09/09 03:04:26;;;;;;;0.40;0.20;;;;;;;15.19;100.00;100292.34;5049662;28;20557;-79
2023/09/09 03:06:53;;;;;;;0.40;0.20;;;;;;;15.08;100.00;100295.56;5044618;28;20471;-78
2023/09/09 03:09:20;;;;;;;0.40;0.20;;;;;;;14.96;100.00;100293.47;5042202;28;20502;-79
2023/09/09 03:11:47;;;;;;;0.40;0.20;;;;;;;15.09;100.00;100294.63;5047176;28;20888;-78
2023/09/09 03:14:13;;;;;;;0.40;0.20;;;;;;;15.18;100.00;100282.59;5051299;28;20478;-79
2023/09/09 03:16:40;;;;;;;0.40;0.20;;;;;;;15.12;100.00;100293.59;5045868;28;20883;-79
2023/09/09 03:19:06;;;;;;;0.40;0.20;;;;;;;15.11;100.00;100282.03;5054322;28;20435;-79
2023/09/09 03:21:33;;;;;;;0.40;0.20;;;;;;;15.14;100.00;100293.53;5036811;28;20448;-79
2023/09/09 03:24:00;;;;;;;0.40;0.30;;;;;;;15.13;100.00;100278.41;5040189;28;20873;-79
2023/09/09 03:26:26;;;;;;;0.40;0.20;;;;;;;15.12;100.00;100282.91;5046461;28;20488;-79
2023/09/09 03:28:53;;;;;;;0.40;0.20;;;;;;;15.18;100.00;100281.72;5049557;28;20549;-79
2023/09/09 03:31:19;;;;;;;0.40;0.20;;;;;;;15.06;100.00;100294.75;5046310;28;20545;-78
2023/09/09 03:33:46;;;;;;;0.40;0.20;;;;;;;14.95;100.00;100274.81;5041999;28;20457;-78
2023/09/09 03:36:13;;;;;;;0.43;0.27;;;;;;;15.04;100.00;100277.88;5045590;28;20451;-79
2023/09/09 03:38:40;;;;;;;0.40;0.20;;;;;;;15.00;100.00;100291.50;5049047;28;20498;-79
2023/09/09 03:41:07;;;;;;;0.40;0.20;;;;;;;14.96;100.00;100293.47;5035296;28;20478;-79
2023/09/09 03:43:36;;;;;;;1.70;1.60;;;;;;;14.90;100.00;100287.50;5050798;28;20479;-79
2023/09/09 03:46:03;;;;;;;0.40;0.20;;;;;;;14.97;100.00;100287.16;5038677;28;20481;-79
2023/09/09 03:48:30;;;;;;;0.40;0.20;;;;;;;15.04;100.00;100285.06;5042701;28;20490;-79
2023/09/09 03:51:01;;;;;;;0.73;0.73;;;;;;;15.06;100.00;100296.56;5047749;28;20451;-78
2023/09/09 03:53:28;;;;;;;0.40;0.20;;;;;;;15.07;100.00;100295.63;5052184;28;20520;-79
2023/09/09 03:55:55;;;;;;;0.40;0.20;;;;;;;15.09;100.00;100281.25;5041032;28;20486;-79
2023/09/09 03:58:23;;;;;;;0.40;0.20;;;;;;;15.10;100.00;100277.63;5047714;28;20553;-79
2023/09/09 04:01:07;;;;;;;0.40;0.20;;;;;;;15.00;100.00;100287.00;5046647;28;20901;-79
2023/09/09 04:03:36;;;;;;;0.40;0.20;;;;;;;15.01;100.00;100288.75;5056871;28;20453;-78
2023/09/09 04:06:06;;;;;;;0.40;0.20;;;;;;;14.97;100.00;100297.00;5053814;28;20451;-78
2023/09/09 04:08:34;;;;;;;0.40;0.20;;;;;;;15.02;100.00;100294.97;5054027;28;20906;-77
2023/09/09 04:11:01;;;;;;;0.40;0.20;;;;;;;15.08;100.00;100292.88;5057182;28;20819;-77
2023/09/09 04:13:27;;;;;;;0.40;0.20;;;;;;;15.06;100.00;100293.88;5053781;28;20447;-77
2023/09/09 04:15:56;;;;;;;0.40;0.37;;;;;;;15.13;100.00;100287.31;5050264;28;20481;-77
2023/09/09 04:18:26;;;;;;;0.40;0.20;;;;;;;15.09;100.00;100288.41;5053387;28;20487;-77
2023/09/09 04:21:09;;;;;;;0.40;0.20;;;;;;;15.09;100.00;100297.31;5038176;28;20869;-77
2023/09/09 04:23:36;;;;;;;0.40;0.20;;;;;;;15.10;100.00;100291.00;5050466;28;20490;-78
2023/09/09 04:26:03;;;;;;;0.40;0.20;;;;;;;15.06;100.00;100286.72;5030326;28;20452;-77
2023/09/09 04:28:29;;;;;;;0.40;0.20;;;;;;;14.95;100.00;100274.81;5036560;28;21018;-77
2023/09/09 04:30:56;;;;;;;0.40;0.20;;;;;;;14.86;100.00;100296.63;5057287;28;20547;-78
2023/09/09 04:33:22;;;;;;;0.50;0.30;;;;;;;14.79;100.00;100285.31;5055889;28;20953;-79
2023/09/09 04:35:48;;;;;;;0.40;0.20;;;;;;;14.64;100.00;100289.56;5023405;28;20455;-79
2023/09/09 04:38:16;;;;;;;0.40;0.20;;;;;;;14.67;100.00;100285.91;5046954;28;20462;-77
2023/09/09 04:40:43;;;;;;;0.40;0.20;;;;;;;14.77;100.00;100292.56;5040492;28;20538;-77
2023/09/09 04:43:09;;;;;;;1.57;1.47;;;;;;;14.71;100.00;100299.06;5041541;28;20542;-78
2023/09/09 04:45:36;;;;;;;0.40;0.20;;;;;;;14.82;100.00;100301.25;5046128;28;20463;-78
2023/09/09 04:48:03;;;;;;;0.40;0.20;;;;;;;14.76;100.00;100301.53;5049097;28;21042;-78
2023/09/09 04:50:29;;;;;;;0.40;0.20;;;;;;;14.62;100.00;100303.97;5045757;28;20447;-78
2023/09/09 04:52:56;;;;;;;0.40;0.20;;;;;;;14.62;100.00;100302.16;5045736;28;20497;-78
2023/09/09 04:55:23;;;;;;;0.40;0.20;;;;;;;14.50;100.00;100305.38;5033143;28;20510;-78
2023/09/09 04:57:49;;;;;;;0.40;0.20;;;;;;;14.60;100.00;100304.03;5036569;28;20570;-80
2023/09/09 05:00:16;;;;;;;0.40;0.20;;;;;;;14.67;100.00;100307.31;5042531;28;20458;-81
2023/09/09 05:02:42;;;;;;;0.40;0.20;;;;;;;14.55;100.00;100305.19;5040648;28;20494;-79
2023/09/09 05:05:09;;;;;;;0.40;0.20;;;;;;;14.59;100.00;100312.13;5046304;28;20513;-80
2023/09/09 05:07:36;;;;;;;0.40;0.30;;;;;;;14.72;100.00;100313.31;5047843;28;20497;-79
2023/09/09 05:10:04;;;;;;;0.40;0.20;;;;;;;14.69;100.00;100310.78;5043631;28;20912;-80
2023/09/09 05:12:31;;;;;;;0.40;0.20;;;;;;;14.60;100.00;100313.88;5043467;28;20456;-80
2023/09/09 05:14:58;;;;;;;0.40;0.20;;;;;;;14.71;100.00;100314.25;5038726;28;20484;-79
2023/09/09 05:17:25;;;;;;;13.90;5.00;;;;;;;14.74;100.00;100317.66;5054572;28;20549;-79
2023/09/09 05:19:52;;;;;;;0.40;0.20;;;;;;;14.95;100.00;100317.63;5043400;28;20455;-81
2023/09/09 05:22:18;;;;;;;0.40;0.20;;;;;;;15.58;99.96;100321.72;5040628;28;20452;-80
2023/09/09 05:24:45;;;;;;;0.40;0.20;;;;;;;16.07;96.85;100311.28;5045127;28;20558;-79
2023/09/09 05:27:11;;;;;;;0.40;0.20;;;;;;;16.43;94.65;100324.59;5026788;28;20495;-81
2023/09/09 05:29:38;;;;;;;0.40;0.20;;;;;;;16.73;94.64;100324.84;5042572;28;20526;-81
2023/09/09 05:32:05;;;;;;;0.40;0.30;;;;;;;17.00;93.57;100318.94;5039715;28;20510;-81
2023/09/09 05:34:31;;;;;;;0.50;0.40;;;;;;;16.96;93.81;100318.22;5045042;28;20456;-79
2023/09/09 05:36:58;;;;;;;0.50;0.20;;;;;;;17.07;93.31;100323.88;5045770;28;20467;-81
2023/09/09 05:39:24;;;;;;;0.40;0.20;;;;;;;17.15;92.48;100321.66;5042279;28;20820;-80
2023/09/09 05:41:50;;;;;;;0.40;0.20;;;;;;;17.15;93.19;100332.41;5038915;28;20823;-81
2023/09/09 05:44:17;;;;;;;0.40;0.20;;;;;;;17.10;94.46;100336.28;5043431;28;20502;-80
2023/09/09 05:46:43;;;;;;;0.40;0.20;;;;;;;16.88;95.85;100337.47;5032639;28;20483;-79
2023/09/09 05:49:10;;;;;;;0.40;0.20;;;;;;;16.91;96.37;100340.91;5041701;28;20494;-80
2023/09/09 05:51:49;;;;;;;0.40;0.20;;;;;;;16.86;98.06;100338.50;5039302;28;20504;-79
2023/09/09 05:54:16;;;;;;;0.40;0.20;;;;;;;16.71;98.73;100339.28;5042096;28;20443;-80
2023/09/09 05:56:42;;;;;;;0.50;0.37;;;;;;;16.72;98.98;100341.91;5035305;28;20487;-80
2023/09/09 05:59:10;;;;;;;0.40;0.20;;;;;;;16.83;98.59;100344.00;5044766;28;20453;-80
2023/09/09 06:01:36;;;;;;;0.40;0.20;;;;;;;16.86;98.52;100342.03;5033909;28;20452;-80
2023/09/09 06:04:03;;;;;;;0.40;0.20;;;;;;;16.90;98.60;100337.38;5046502;28;20946;-80
2023/09/09 06:06:30;;;;;;;0.40;0.20;;;;;;;16.93;98.58;100339.88;5043280;28;20561;-79
2023/09/09 06:08:57;;;;;;;0.40;0.20;;;;;;;16.92;99.17;100342.66;5043346;28;21006;-80
2023/09/09 06:11:24;;;;;;;0.40;0.20;;;;;;;17.03;99.44;100351.88;5049379;28;20501;-78
2023/09/09 06:13:50;;;;;;;0.40;0.20;;;;;;;17.08;99.91;100359.66;5049444;28;20455;-79
2023/09/09 06:16:18;;;;;;;0.40;0.20;;;;;;;17.18;100.00;100350.16;5036350;28;20471;-77
2023/09/09 06:18:44;;;;;;;0.40;0.20;;;;;;;17.16;100.00;100352.06;5049280;28;20450;-79
2023/09/09 06:21:11;;;;;;;0.40;0.20;;;;;;;17.29;100.00;100363.00;5043191;28;20496;-80
2023/09/09 06:23:38;;;;;;;0.40;0.20;;;;;;;17.44;100.00;100359.47;5043295;28;20443;-80
2023/09/09 06:26:05;;;;;;;0.40;0.20;;;;;;;17.50;100.00;100359.13;5023492;28;20449;-80
2023/09/09 06:28:31;;;;;;;0.53;0.47;;;;;;;17.47;99.12;100365.53;5030435;28;20553;-79
2023/09/09 06:30:58;;;;;;;0.50;0.40;;;;;;;17.68;100.00;100357.19;5050364;28;20451;-79
2023/09/09 06:33:24;;;;;;;0.40;0.20;;;;;;;18.09;98.21;100367.44;5050709;28;20482;-79
2023/09/09 06:35:52;;;;;;;0.40;0.20;;;;;;;18.26;98.36;100368.19;5037778;28;20459;-79
2023/09/09 06:38:19;;;;;;;0.40;0.20;;;;;;;18.08;99.66;100357.63;5049826;28;20481;-77
2023/09/09 06:40:47;;;;;;;0.40;0.20;;;;;;;18.06;99.25;100366.66;5044596;28;20457;-78
2023/09/09 06:43:17;;;;;;;1.03;1.03;;;;;;;18.35;99.96;100367.63;5043822;28;20511;-78
2023/09/09 06:45:43;;;;;;;0.40;0.20;;;;;;;18.37;100.00;100369.41;5050091;28;20487;-79
2023/09/09 06:48:10;;;;;;;0.47;0.37;;;;;;;18.43;100.00;100371.72;5039374;28;20498;-79
2023/09/09 06:50:37;;;;;;;0.40;0.20;;;;;;;18.38;100.00;100369.31;5049939;28;20487;-79
2023/09/09 06:53:03;;;;;;;0.40;0.20;;;;;;;18.66;99.85;100373.06;5039796;28;20905;-79
2023/09/09 06:55:32;;;;;;;0.53;0.47;;;;;;;18.52;99.89;100377.41;5047187;28;20458;-78
2023/09/09 06:58:00;;;;;;;0.40;0.20;;;;;;;18.61;100.00;100379.53;5048305;28;21011;-77
2023/09/09 07:00:26;;;;;;;0.40;0.20;;;;;;;18.70;100.00;100382.69;5045335;28;20883;-78
2023/09/09 07:02:53;;;;;;;0.40;0.20;;;;;;;18.83;100.00;100373.75;5042890;28;20458;-77
2023/09/09 07:05:19;;;;;;;0.40;0.20;;;;;;;18.88;100.00;100374.31;5045576;28;20447;-78
2023/09/09 07:07:46;;;;;;;0.40;0.20;;;;;;;19.14;98.78;100377.22;5048982;28;21024;-79
2023/09/09 07:10:12;;;;;;;0.40;0.20;;;;;;;19.15;98.42;100374.44;5045610;28;20513;-78
2023/09/09 07:12:39;;;;;;;0.40;0.20;;;;;;;19.23;98.49;100372.16;5041288;28;20455;-78
2023/09/09 07:15:06;;;;;;;0.40;0.20;;;;;;;19.12;98.63;100376.47;5044378;28;20838;-77
2023/09/09 07:17:33;;;;;;;0.40;0.20;;;;;;;19.17;99.29;100360.88;5048412;28;20475;-78
2023/09/09 07:19:59;;;;;;;0.40;0.20;;;;;;;19.43;97.56;100375.38;5046323;28;20451;-78
2023/09/09 07:22:26;;;;;;;0.40;0.20;;;;;;;19.53;97.99;100376.53;5043630;28;20451;-80
2023/09/09 07:24:52;;;;;;;0.40;0.20;;;;;;;19.75;96.59;100371.53;5046715;28;20467;-78
2023/09/09 07:27:20;;;;;;;0.40;0.20;;;;;;;20.06;95.42;100372.19;5031683;28;20594;-78
2023/09/09 07:29:46;;;;;;;0.50;0.20;;;;;;;19.86;95.87;100375.34;5046289;28;20577;-78
2023/09/09 07:32:13;;;;;;;0.40;0.20;;;;;;;19.90;95.70;100374.19;5041821;28;20542;-77
2023/09/09 07:34:39;;;;;;;0.50;0.40;;;;;;;20.26;94.00;100377.13;5044001;28;20539;-79
2023/09/09 07:37:06;;;;;;;0.40;0.20;;;;;;;20.34;92.44;100374.78;5054773;28;20533;-79
2023/09/09 07:39:44;;;;;;;0.50;0.20;;;;;;;20.22;94.15;100381.00;5045293;28;20459;-80
2023/09/09 07:42:11;;;;;;;0.50;0.30;;;;;;;20.22;94.46;100380.13;5050998;28;20451;-80
2023/09/09 07:44:37;;;;;;;0.47;0.20;;;;;;;20.31;94.44;100376.84;5051179;28;20478;-80
2023/09/09 07:47:06;;;;;;;0.43;0.20;;;;;;;20.34;94.62;100368.50;5035778;28;20446;-80
2023/09/09 07:49:33;;;;;;;0.50;0.20;;;;;;;20.67;93.63;100371.63;5051532;28;20497;-80
2023/09/09 07:52:02;;;;;;;0.40;0.20;;;;;;;20.81;93.37;100372.50;5045368;28;20454;-81
2023/09/09 07:54:32;;;;;;;0.40;0.20;;;;;;;20.94;92.34;100376.09;5043048;28;20510;-80
2023/09/09 07:57:00;;;;;;;0.50;0.20;;;;;;;21.12;91.30;100358.59;5042234;28;20839;-80
2023/09/09 07:59:28;;;;;;;0.50;0.20;;;;;;;21.25;89.74;100374.84;5051911;28;20434;-79
2023/09/09 08:01:56;;;;;;;0.50;0.20;;;;;;;21.37;89.81;100375.75;5048487;28;20442;-81
2023/09/09 08:04:23;;;;;;;0.50;0.20;;;;;;;21.55;89.40;100374.44;5063095;28;20512;-80
2023/09/09 08:06:52;;;;;;;0.50;0.30;;;;;;;21.53;89.35;100376.41;5038589;28;20495;-80
2023/09/09 08:09:23;;;;;;;0.50;0.30;;;;;;;21.47;88.45;100375.00;5051035;28;20591;-79
2023/09/09 08:11:49;;;;;;;0.50;0.20;;;;;;;21.62;88.42;100380.25;5038233;28;20458;-80
2023/09/09 08:14:18;;;;;;;0.50;0.30;;;;;;;21.76;88.35;100377.41;5039730;28;20450;-80
2023/09/09 08:16:45;;;;;;;0.47;0.20;;;;;;;22.01;87.88;100374.63;5047655;28;20587;-81
2023/09/09 08:19:12;;;;;;;0.50;0.20;;;;;;;22.08;86.97;100373.22;5041656;28;20424;-80
2023/09/09 08:21:39;;;;;;;0.50;0.30;;;;;;;22.11;88.10;100385.66;5049178;28;20452;-80
2023/09/09 08:24:06;;;;;;;0.50;0.20;;;;;;;22.42;86.03;100370.66;5051468;28;20969;-80
2023/09/09 08:26:32;;;;;;;0.50;0.20;;;;;;;22.54;85.41;100376.97;5038249;28;20510;-80
2023/09/09 08:28:59;;;;;;;0.50;0.30;;;;;;;22.46;86.62;100377.56;5043647;28;20438;-80
2023/09/09 08:31:26;;;;;;;0.50;0.30;;;;;;;22.63;85.28;100371.72;5049809;28;20508;-79
2023/09/09 08:33:53;;;;;;;0.50;0.20;;;;;;;22.78;84.80;100377.81;5044966;28;20493;-80
2023/09/09 08:36:20;;;;;;;0.50;0.20;;;;;;;22.94;83.14;100377.50;5048298;28;20927;-79
2023/09/09 08:38:48;;;;;;;0.50;0.20;;;;;;;22.97;83.44;100385.38;5051251;28;20434;-81
2023/09/09 08:41:57;;;;;;;0.50;0.20;;;;;;;23.15;83.50;100375.78;5049382;28;20437;-81
2023/09/09 08:44:42;;;;;;;0.50;0.30;;;;;;;23.27;82.77;100371.22;5030910;28;20798;-81
2023/09/09 08:47:09;;;;;;;0.50;0.20;;;;;;;23.39;82.08;100370.25;5042118;28;20480;-80
2023/09/09 08:49:38;;;;;;;0.50;0.20;;;;;;;23.44;80.43;100369.91;5040759;28;20494;-80
2023/09/09 08:52:18;;;;;;;0.50;0.20;;;;;;;23.61;80.78;100374.84;5052060;28;20463;-80
2023/09/09 08:54:46;;;;;;;0.50;0.20;;;;;;;24.00;80.29;100369.84;5052047;28;20437;-80
2023/09/09 08:57:13;;;;;;;0.50;0.20;;;;;;;24.13;79.05;100365.97;5052319;28;20467;-81
2023/09/09 08:59:42;;;;;;;0.50;0.27;;;;;;;24.11;79.03;100370.63;5049032;28;20435;-81
2023/09/09 09:02:12;;;;;;;0.50;0.20;;;;;;;24.07;79.01;100369.19;5050981;28;20444;-80
2023/09/09 09:04:39;;;;;;;0.50;0.20;;;;;;;24.12;78.98;100368.78;5052711;28;20407;-81
2023/09/09 09:07:08;;;;;;;0.50;0.20;;;;;;;24.54;78.61;100363.47;5040501;28;20472;-81
2023/09/09 09:09:35;;;;;;;0.50;0.30;;;;;;;24.47;78.54;100369.44;5052711;28;20540;-80
2023/09/09 09:12:03;;;;;;;0.50;0.30;;;;;;;24.55;79.06;100365.22;5047752;28;20969;-79
2023/09/09 09:14:30;;;;;;;0.50;0.20;;;;;;;24.87;77.55;100354.25;5058456;28;20422;-80
2023/09/09 09:16:57;;;;;;;0.60;0.50;;;;;;;24.81;78.50;100363.81;5051406;28;20467;-80
2023/09/09 09:19:28;;;;;;;0.50;0.20;;;;;;;25.19;77.96;100357.75;5049186;28;20511;-79
2023/09/09 09:21:56;;;;;;;0.50;0.30;;;;;;;25.50;76.54;100357.75;5047997;28;20538;-80
2023/09/09 09:24:27;;;;;;;0.50;0.20;;;;;;;25.67;75.49;100352.50;5043157;28;20457;-80
2023/09/09 09:26:56;;;;;;;0.50;0.27;;;;;;;25.58;76.33;100356.06;5041484;28;20477;-80
2023/09/09 09:29:23;;;;;;;0.50;0.30;;;;;;;25.65;77.18;100356.38;5022863;28;20470;-80
2023/09/09 09:31:51;;;;;;;0.50;0.20;;;;;;;25.90;75.83;100349.56;5049714;28;20421;-80
2023/09/09 09:34:19;;;;;;;0.50;0.20;;;;;;;26.03;75.76;100355.59;5043239;28;20848;-80
2023/09/09 09:36:46;;;;;;;0.50;0.30;;;;;;;26.00;75.13;100345.00;5043164;28;20526;-80
2023/09/09 09:39:14;;;;;;;0.50;0.20;;;;;;;26.39;75.30;100345.91;5049085;28;20488;-80
2023/09/09 09:41:43;;;;;;;0.50;0.20;;;;;;;26.01;75.01;100349.44;5053678;28;20432;-80
2023/09/09 09:44:20;;;;;;;1.20;1.13;;;;;;;26.40;73.89;100347.63;5048690;28;20515;-80
2023/09/09 09:47:03;;;;;;;0.50;0.30;;;;;;;26.28;73.47;100346.03;5041322;28;20453;-80
2023/09/09 09:49:40;;;;;;;0.50;0.20;;;;;;;26.42;72.73;100359.25;5050723;28;20459;-79
2023/09/09 09:52:08;;;;;;;0.50;0.30;;;;;;;26.27;73.91;100353.34;5044206;28;20472;-79
2023/09/09 09:54:36;;;;;;;0.50;0.30;;;;;;;26.23;74.09;100351.91;5033269;28;20430;-78
2023/09/09 09:57:05;;;;;;;0.50;0.30;;;;;;;26.22;73.50;100352.06;5044935;28;20475;-80
2023/09/09 09:59:33;;;;;;;0.50;0.20;;;;;;;26.31;73.03;100348.44;5045494;28;20422;-79
2023/09/09 10:02:01;;;;;;;0.50;0.20;;;;;;;26.52;73.17;100343.75;5049079;28;20481;-79
2023/09/09 10:04:37;;;;;;;0.90;0.90;;;;;;;26.99;72.35;100357.44;5053186;28;20510;-79
2023/09/09 10:07:05;;;;;;;0.50;0.20;;;;;;;26.69;70.77;100347.59;5048505;28;20562;-79
2023/09/09 10:09:59;;;;;;;0.50;0.30;;;;;;;26.74;70.42;100348.03;5046222;28;20491;-79
2023/09/09 10:12:39;;;;;;;0.50;0.33;;;;;;;27.19;69.90;100351.97;5046945;28;20427;-80
2023/09/09 10:15:16;;;;;;;0.50;0.30;;;;;;;27.14;69.97;100345.09;5048052;28;20422;-79
2023/09/09 10:17:44;;;;;;;0.50;0.30;;;;;;;27.22;69.32;100348.94;5052314;28;20472;-80
2023/09/09 10:20:11;;;;;;;0.50;0.30;;;;;;;27.03;68.80;100344.41;5040078;28;20443;-79
2023/09/09 10:22:41;;;;;;;0.50;0.30;;;;;;;27.45;67.88;100348.41;5052130;28;20839;-79
2023/09/09 10:25:10;;;;;;;0.50;0.30;;;;;;;27.43;68.59;100334.06;5050429;28;20451;-79
2023/09/09 10:27:39;;;;;;;0.50;0.30;;;;;;;27.59;68.50;100336.13;5027035;28;20480;-79
2023/09/09 10:30:09;;;;;;;0.50;0.30;;;;;;;27.65;67.72;100324.63;5054479;28;20481;-80
2023/09/09 10:32:37;;;;;;;0.50;0.30;;;;;;;27.63;67.44;100333.94;5035483;28;20469;-80
2023/09/09 10:35:08;;;;;;;0.50;0.30;;;;;;;27.73;67.31;100340.25;5047748;28;20426;-79
2023/09/09 10:37:37;;;;;;;0.50;0.30;;;;;;;27.67;66.44;100325.31;5049208;28;20471;-79
2023/09/09 10:40:05;;;;;;;2.40;2.20;;;;;;;27.96;66.59;100332.47;5051560;28;20526;-79
2023/09/09 10:42:36;;;;;;;0.50;0.30;;;;;;;27.97;67.29;100335.06;5037861;28;20456;-79
2023/09/09 10:45:25;;;;;;;0.50;0.30;;;;;;;28.11;65.69;100332.81;5050491;28;20470;-79
2023/09/09 10:47:54;;;;;;;0.50;0.30;;;;;;;28.07;65.67;100324.03;5037358;28;20447;-79
2023/09/09 10:50:21;;;;;;;0.50;0.30;;;;;;;28.11;64.68;100333.69;5041539;28;20498;-79
2023/09/09 10:53:11;;;;;;;0.50;0.30;;;;;;;27.97;64.50;100328.75;5045419;28;20553;-79
2023/09/09 10:55:37;;;;;;;0.50;0.30;;;;;;;28.15;65.09;100329.59;5036995;28;20485;-79
2023/09/09 10:58:08;;;;;;;0.50;0.30;;;;;;;28.68;64.98;100326.00;5055052;22;20504;-51
2023/09/09 11:00:39;;;;;;;0.50;0.30;;;;;;;28.83;63.48;100329.00;5005411;28;20442;-51
2023/09/09 11:03:28;;;;;;;0.50;0.30;;;;;;;28.95;62.47;100327.75;5001591;28;20445;-53
2023/09/09 11:06:06;;;;;;;0.50;0.30;;;;;;;28.75;63.56;100329.78;5001333;28;20492;-51
2023/09/09 11:08:43;;;;;;;0.50;0.30;;;;;;;28.91;61.97;100321.72;5005526;28;20477;-51
2023/09/09 11:11:13;;;;;;;0.50;0.30;;;;;;;29.17;59.83;100329.94;5008320;28;20492;-52
2023/09/09 11:13:51;;;;;;;0.50;0.30;;;;;;;28.87;60.41;100328.56;5006607;28;20514;-51
2023/09/09 11:16:40;;;;;;;0.50;0.30;;;;;;;28.76;60.25;100326.03;5001316;28;20544;-52
2023/09/09 11:19:11;;;;;;;1.53;1.43;;;;;;;28.95;59.42;100325.03;5001171;28;20473;-52
2023/09/09 11:21:40;;;;;;;0.50;0.30;;;;;;;29.40;59.11;100323.88;5004385;28;20623;-52
2023/09/09 11:24:07;;;;;;;0.50;0.30;;;;;;;29.41;58.85;100318.25;5007972;28;20526;-52
2023/09/09 11:26:39;;;;;;;0.50;0.30;;;;;;;29.72;58.13;100317.69;5004953;28;20535;-52
2023/09/09 11:29:07;;;;;;;0.50;0.30;;;;;;;29.88;57.41;100316.88;5009626;28;20560;-52